Time;durP1;ratioP1;P1;durP2;ratioP2;P2;SDS_P1;SDS_P2;PMS_P1;PMS_P2;Temp;Humidity;BMP_temperature;BMP_pressure;BME280_temperature;BME280_humidity;BME280_pressure;Samples;Min_cycle;Max_cycle;Signal;HPM_P1;HPM_P2
2024/01/07 00:00:33;;;;;;;14.67;8.63;;;;;;;;;;5032328;28;20183;-69
2024/01/07 00:02:58;;;;;;;11.40;7.67;;;;;;;;;;5029387;28;20170;-68
2024/01/07 00:05:24;;;;;;;13.53;8.53;;;;;;;;;;5030450;28;20170;-69
2024/01/07 00:07:50;;;;;;;11.57;8.13;;;;;;;;;;5027392;28;20182;-68
2024/01/07 00:10:16;;;;;;;15.27;8.50;;;;;;;;;;5030991;28;20214;-71
2024/01/07 00:12:41;;;;;;;11.20;7.87;;;;;;;;;;5031146;28;20202;-68
2024/01/07 00:15:06;;;;;;;15.23;9.43;;;;;;;;;;5031634;28;20183;-69
2024/01/07 00:17:31;;;;;;;10.90;8.20;;;;;;;;;;5029354;28;20666;-69
2024/01/07 00:19:57;;;;;;;11.47;8.03;;;;;;;;;;5029409;28;20194;-68
2024/01/07 00:22:22;;;;;;;11.47;7.57;;;;;;;;;;5029759;28;20716;-69
2024/01/07 00:24:47;;;;;;;13.10;8.80;;;;;;;;;;5026128;28;20189;-69
2024/01/07 00:27:12;;;;;;;12.57;7.77;;;;;;;;;;5028887;28;20181;-69
2024/01/07 00:29:37;;;;;;;12.37;8.93;;;;;;;;;;5029651;28;20198;-69
2024/01/07 00:32:03;;;;;;;10.37;7.20;;;;;;;;;;5013120;28;20190;-69
2024/01/07 00:34:28;;;;;;;13.10;7.90;;;;;;;;;;5027684;28;20254;-69
2024/01/07 00:36:54;;;;;;;11.30;8.67;;;;;;;;;;5026489;28;20209;-69
2024/01/07 00:39:19;;;;;;;12.17;8.40;;;;;;;;;;5013290;28;20197;-69
2024/01/07 00:41:44;;;;;;;13.73;8.07;;;;;;;;;;5025936;28;20166;-69
2024/01/07 00:44:09;;;;;;;14.37;9.20;;;;;;;;;;5015635;28;20179;-69
2024/01/07 00:46:34;;;;;;;13.53;8.90;;;;;;;;;;5018854;28;20183;-69
2024/01/07 00:49:00;;;;;;;13.27;8.17;;;;;;;;;;5023987;28;20246;-69
2024/01/07 00:51:25;;;;;;;13.23;8.70;;;;;;;;;;5022639;28;20197;-68
2024/01/07 00:53:50;;;;;;;14.27;9.57;;;;;;;;;;5029133;28;20220;-69
2024/01/07 00:56:15;;;;;;;12.97;8.47;;;;;;;;;;5026299;28;20198;-70
2024/01/07 00:58:40;;;;;;;16.97;9.37;;;;;;;;;;5030042;28;20225;-70
2024/01/07 01:01:06;;;;;;;13.73;8.33;;;;;;;;;;5026972;28;20265;-70
2024/01/07 01:03:31;;;;;;;15.53;10.10;;;;;;;;;;5030389;28;20167;-70
2024/01/07 01:05:56;;;;;;;13.70;8.63;;;;;;;;;;5025627;28;20181;-70
2024/01/07 01:08:23;;;;;;;15.33;9.57;;;;;;;;;;5029359;28;20545;-70
2024/01/07 01:10:48;;;;;;;13.93;9.53;;;;;;;;;;5026757;28;20179;-70
2024/01/07 01:13:14;;;;;;;12.83;8.90;;;;;;;;;;5026858;28;20722;-70
2024/01/07 01:15:40;;;;;;;14.30;9.07;;;;;;;;;;5023900;28;20190;-70
2024/01/07 01:18:05;;;;;;;15.13;9.80;;;;;;;;;;5025602;28;20704;-70
2024/01/07 01:20:30;;;;;;;13.60;8.50;;;;;;;;;;5016099;28;20190;-68
2024/01/07 01:22:55;;;;;;;15.17;9.67;;;;;;;;;;5027421;28;20182;-70
2024/01/07 01:25:21;;;;;;;14.07;9.50;;;;;;;;;;5009743;28;20247;-68
2024/01/07 01:27:46;;;;;;;16.33;9.57;;;;;;;;;;5009359;28;20178;-68
2024/01/07 01:30:11;;;;;;;14.33;9.17;;;;;;;;;;5027545;28;20555;-68
2024/01/07 01:32:37;;;;;;;13.83;9.37;;;;;;;;;;5011834;28;20178;-68
2024/01/07 01:35:04;;;;;;;15.97;10.23;;;;;;;;;;5026497;28;20189;-68
2024/01/07 01:37:30;;;;;;;16.73;11.20;;;;;;;;;;5008749;28;20208;-68
2024/01/07 01:39:55;;;;;;;15.47;9.87;;;;;;;;;;5028396;28;20281;-70
2024/01/07 01:42:20;;;;;;;14.27;9.90;;;;;;;;;;5027447;28;20171;-70
2024/01/07 01:44:46;;;;;;;16.03;9.87;;;;;;;;;;5011377;28;20245;-67
2024/01/07 01:47:11;;;;;;;15.30;9.97;;;;;;;;;;5023717;28;20183;-68
2024/01/07 01:49:37;;;;;;;14.40;9.53;;;;;;;;;;5028287;28;20190;-68
2024/01/07 01:52:03;;;;;;;14.70;9.40;;;;;;;;;;5027135;28;20178;-68
2024/01/07 01:54:28;;;;;;;16.00;9.73;;;;;;;;;;5030648;28;20676;-68
2024/01/07 01:56:54;;;;;;;12.63;8.37;;;;;;;;;;5033381;28;20285;-68
2024/01/07 01:59:19;;;;;;;14.50;9.90;;;;;;;;;;5030596;28;20260;-70
2024/01/07 02:01:44;;;;;;;14.73;9.47;;;;;;;;;;5029670;28;20216;-68
2024/01/07 02:04:10;;;;;;;14.83;10.73;;;;;;;;;;5015807;28;20602;-68
2024/01/07 02:06:35;;;;;;;14.90;9.57;;;;;;;;;;5007542;28;20187;-68
2024/01/07 02:11:28;;;;;;;14.60;9.30;;;;;;;;;;5031705;28;20279;-70
2024/01/07 02:13:53;;;;;;;14.03;8.93;;;;;;;;;;5033766;28;20174;-70
2024/01/07 02:16:18;;;;;;;13.87;8.97;;;;;;;;;;5032563;28;20201;-69
2024/01/07 02:18:44;;;;;;;13.50;9.40;;;;;;;;;;5030462;28;20548;-72
2024/01/07 02:21:09;;;;;;;15.10;9.33;;;;;;;;;;5032817;28;20437;-70
2024/01/07 02:23:35;;;;;;;15.00;9.13;;;;;;;;;;5034341;28;20171;-71
2024/01/07 02:26:00;;;;;;;17.17;9.60;;;;;;;;;;5028921;28;20604;-69
2024/01/07 02:28:25;;;;;;;12.70;9.00;;;;;;;;;;5025530;28;20179;-70
2024/01/07 02:30:50;;;;;;;14.60;9.13;;;;;;;;;;5009210;28;20576;-70
2024/01/07 02:33:15;;;;;;;15.47;9.83;;;;;;;;;;5026341;28;20182;-70
2024/01/07 02:35:41;;;;;;;12.20;8.67;;;;;;;;;;5030935;28;20205;-70
2024/01/07 02:38:06;;;;;;;15.80;9.67;;;;;;;;;;5029510;28;20743;-71
2024/01/07 02:40:31;;;;;;;15.50;9.67;;;;;;;;;;5014032;28;20198;-70
2024/01/07 02:42:56;;;;;;;18.00;10.73;;;;;;;;;;5011672;28;20230;-70
2024/01/07 02:45:22;;;;;;;14.50;9.73;;;;;;;;;;5029835;28;20178;-70
2024/01/07 02:47:47;;;;;;;15.13;9.60;;;;;;;;;;5028042;28;20178;-71
2024/01/07 02:50:12;;;;;;;17.93;10.37;;;;;;;;;;5010663;28;20202;-71
2024/01/07 02:52:37;;;;;;;17.80;10.20;;;;;;;;;;5028022;28;20185;-70
2024/01/07 02:55:03;;;;;;;19.43;10.93;;;;;;;;;;5028422;28;20186;-69
2024/01/07 02:57:28;;;;;;;20.33;11.67;;;;;;;;;;5011753;28;20211;-71
2024/01/07 02:59:53;;;;;;;17.53;11.00;;;;;;;;;;5026573;28;20206;-69
2024/01/07 03:02:18;;;;;;;19.17;10.70;;;;;;;;;;5010655;28;20174;-70
2024/01/07 03:04:43;;;;;;;19.20;11.40;;;;;;;;;;5024376;28;20171;-70
2024/01/07 03:07:09;;;;;;;19.97;11.70;;;;;;;;;;5027177;28;20314;-70
2024/01/07 03:09:34;;;;;;;21.43;12.30;;;;;;;;;;5037492;28;20699;-71
2024/01/07 03:11:59;;;;;;;19.27;11.33;;;;;;;;;;5035170;28;20182;-70
2024/01/07 03:14:24;;;;;;;22.47;12.23;;;;;;;;;;5030597;28;20224;-70
2024/01/07 03:16:50;;;;;;;21.50;12.13;;;;;;;;;;5027458;28;20209;-69
2024/01/07 03:19:15;;;;;;;22.63;13.27;;;;;;;;;;5025873;28;20200;-70
2024/01/07 03:21:40;;;;;;;23.57;13.40;;;;;;;;;;5030584;28;20178;-70
2024/01/07 03:24:05;;;;;;;23.23;13.23;;;;;;;;;;5027580;28;20274;-70
2024/01/07 03:26:32;;;;;;;21.23;13.70;;;;;;;;;;5029448;28;20174;-70
2024/01/07 03:28:59;;;;;;;23.60;13.73;;;;;;;;;;5031081;28;20732;-70
2024/01/07 03:31:25;;;;;;;21.53;13.03;;;;;;;;;;5027530;28;20179;-70
2024/01/07 03:33:50;;;;;;;21.37;12.80;;;;;;;;;;5026155;28;20174;-71
2024/01/07 03:36:15;;;;;;;25.30;13.77;;;;;;;;;;5023262;28;20206;-69
2024/01/07 03:38:41;;;;;;;24.63;13.10;;;;;;;;;;5029637;28;20170;-70
2024/01/07 03:41:06;;;;;;;19.70;12.57;;;;;;;;;;5025404;28;20702;-70
2024/01/07 03:43:32;;;;;;;19.20;12.17;;;;;;;;;;5029917;28;20178;-70
2024/01/07 03:45:57;;;;;;;25.00;12.67;;;;;;;;;;5018579;28;20639;-70
2024/01/07 03:48:22;;;;;;;19.33;12.93;;;;;;;;;;5029080;28;20574;-70
2024/01/07 03:50:47;;;;;;;23.67;12.40;;;;;;;;;;5028675;28;20198;-71
2024/01/07 03:53:13;;;;;;;21.47;11.87;;;;;;;;;;5024983;28;20275;-70
2024/01/07 03:55:38;;;;;;;21.07;12.53;;;;;;;;;;5028131;28;20298;-70
2024/01/07 03:58:04;;;;;;;18.63;12.37;;;;;;;;;;5028373;28;20305;-70
2024/01/07 04:00:29;;;;;;;22.43;12.93;;;;;;;;;;5025437;28;20720;-71
2024/01/07 04:02:54;;;;;;;18.17;11.87;;;;;;;;;;5026582;28;20265;-71
2024/01/07 04:05:19;;;;;;;18.23;12.03;;;;;;;;;;5026243;28;20180;-69
2024/01/07 04:07:44;;;;;;;18.47;12.13;;;;;;;;;;5025933;28;20228;-71
2024/01/07 04:10:10;;;;;;;21.00;12.13;;;;;;;;;;5023044;28;20260;-70
2024/01/07 04:12:36;;;;;;;24.27;12.53;;;;;;;;;;5030994;28;20174;-71
2024/01/07 04:15:01;;;;;;;19.30;12.23;;;;;;;;;;5023003;28;20218;-71
2024/01/07 04:17:26;;;;;;;20.53;11.87;;;;;;;;;;5013285;28;20229;-70
2024/01/07 04:19:52;;;;;;;19.23;11.87;;;;;;;;;;5027723;28;20205;-71
2024/01/07 04:22:17;;;;;;;19.43;11.43;;;;;;;;;;5028329;28;20179;-70
2024/01/07 04:24:42;;;;;;;25.53;12.47;;;;;;;;;;5028526;28;20772;-71
2024/01/07 04:27:07;;;;;;;21.33;13.03;;;;;;;;;;5027940;28;20186;-70
2024/01/07 04:29:33;;;;;;;18.27;11.50;;;;;;;;;;5034572;28;20206;-71
2024/01/07 04:31:58;;;;;;;19.43;13.37;;;;;;;;;;5026053;28;20184;-70
2024/01/07 04:34:24;;;;;;;20.00;12.90;;;;;;;;;;5029757;28;20179;-70
2024/01/07 04:36:49;;;;;;;24.30;12.77;;;;;;;;;;5029926;28;20256;-71
2024/01/07 04:39:14;;;;;;;21.63;11.90;;;;;;;;;;5028228;28;20195;-71
2024/01/07 04:41:39;;;;;;;24.33;14.13;;;;;;;;;;5022689;28;20174;-70
2024/01/07 04:44:05;;;;;;;23.20;12.13;;;;;;;;;;5008558;28;20252;-70
2024/01/07 04:46:33;;;;;;;24.20;13.80;;;;;;;;;;5027431;28;20178;-70
2024/01/07 04:48:58;;;;;;;19.30;12.77;;;;;;;;;;5026586;28;20202;-70
2024/01/07 04:51:23;;;;;;;20.17;11.87;;;;;;;;;;5024642;28;20232;-70
2024/01/07 04:53:49;;;;;;;24.70;13.40;;;;;;;;;;5025755;28;20179;-71
2024/01/07 04:56:14;;;;;;;20.57;12.53;;;;;;;;;;5025803;28;20636;-70
2024/01/07 04:58:39;;;;;;;24.27;12.43;;;;;;;;;;5010941;28;20182;-70
2024/01/07 05:01:05;;;;;;;23.80;14.23;;;;;;;;;;5030516;28;20244;-70
2024/01/07 05:03:30;;;;;;;24.57;14.07;;;;;;;;;;5027293;28;20175;-71
2024/01/07 05:05:55;;;;;;;22.20;12.83;;;;;;;;;;5022699;28;20626;-70
2024/01/07 05:08:20;;;;;;;23.93;13.23;;;;;;;;;;5023252;28;20187;-71
2024/01/07 05:10:46;;;;;;;27.70;14.57;;;;;;;;;;5018685;28;20275;-71
2024/01/07 05:13:11;;;;;;;28.23;15.97;;;;;;;;;;5025339;28;20174;-69
2024/01/07 05:15:36;;;;;;;25.40;13.77;;;;;;;;;;5027891;28;20182;-70
2024/01/07 05:18:02;;;;;;;24.50;14.23;;;;;;;;;;5023535;28;20206;-70
2024/01/07 05:20:27;;;;;;;26.03;13.50;;;;;;;;;;5007047;28;20532;-70
2024/01/07 05:22:52;;;;;;;25.20;14.63;;;;;;;;;;5027438;28;20179;-70
2024/01/07 05:25:17;;;;;;;20.23;13.00;;;;;;;;;;5025243;28;20555;-70
2024/01/07 05:27:42;;;;;;;22.70;13.37;;;;;;;;;;5030516;28;20216;-71
2024/01/07 05:30:08;;;;;;;23.30;14.70;;;;;;;;;;5028211;28;20281;-70
2024/01/07 05:32:33;;;;;;;22.23;13.37;;;;;;;;;;5032005;28;20188;-71
2024/01/07 05:34:58;;;;;;;21.83;12.30;;;;;;;;;;5030032;28;20174;-70
2024/01/07 05:37:24;;;;;;;18.63;11.00;;;;;;;;;;5030309;28;20581;-70
2024/01/07 05:39:49;;;;;;;22.47;11.93;;;;;;;;;;5011191;28;20196;-70
2024/01/07 05:42:14;;;;;;;20.00;11.93;;;;;;;;;;5032300;28;20232;-71
2024/01/07 05:44:40;;;;;;;18.97;11.83;;;;;;;;;;5028007;28;20315;-70
2024/01/07 05:47:05;;;;;;;15.17;10.07;;;;;;;;;;5027361;28;20186;-70
2024/01/07 05:49:31;;;;;;;16.23;10.63;;;;;;;;;;5010312;28;20582;-70
2024/01/07 05:51:56;;;;;;;19.80;11.97;;;;;;;;;;5025872;28;20189;-70
2024/01/07 05:54:22;;;;;;;17.00;10.90;;;;;;;;;;5032899;28;20174;-69
2024/01/07 05:56:47;;;;;;;17.43;10.73;;;;;;;;;;5024929;28;20190;-72
2024/01/07 05:59:12;;;;;;;17.23;9.93;;;;;;;;;;5031474;28;20202;-70
2024/01/07 06:01:38;;;;;;;17.40;10.60;;;;;;;;;;5032506;28;20223;-72
2024/01/07 06:04:03;;;;;;;21.53;11.47;;;;;;;;;;5028859;28;20186;-70
2024/01/07 06:06:28;;;;;;;18.03;10.80;;;;;;;;;;5031174;28;20201;-69
2024/01/07 06:08:53;;;;;;;15.80;10.73;;;;;;;;;;5026516;28;20583;-71
2024/01/07 06:11:20;;;;;;;16.27;11.43;;;;;;;;;;5028962;28;20190;-70
2024/01/07 06:13:45;;;;;;;15.73;9.93;;;;;;;;;;5025222;28;20232;-70
2024/01/07 06:16:10;;;;;;;20.53;11.77;;;;;;;;;;5026268;28;20175;-71
2024/01/07 06:18:36;;;;;;;18.70;10.87;;;;;;;;;;5028059;28;20186;-70
2024/01/07 06:21:01;;;;;;;15.50;10.17;;;;;;;;;;5030415;28;20182;-70
2024/01/07 06:23:26;;;;;;;18.10;10.23;;;;;;;;;;5006037;28;20178;-71
2024/01/07 06:25:51;;;;;;;15.70;10.10;;;;;;;;;;5026145;28;20228;-70
2024/01/07 06:28:16;;;;;;;16.30;10.47;;;;;;;;;;5033312;28;20193;-70
2024/01/07 06:30:42;;;;;;;13.87;10.00;;;;;;;;;;5027713;28;20650;-70
2024/01/07 06:33:07;;;;;;;18.97;11.77;;;;;;;;;;5032332;28;20186;-71
2024/01/07 06:35:32;;;;;;;17.13;9.97;;;;;;;;;;5031291;28;20635;-70
2024/01/07 06:37:57;;;;;;;15.87;10.47;;;;;;;;;;5027333;28;20206;-71
2024/01/07 06:40:23;;;;;;;20.23;10.93;;;;;;;;;;5029130;28;20221;-71
2024/01/07 06:42:48;;;;;;;17.07;9.53;;;;;;;;;;5029655;28;20174;-70
2024/01/07 06:45:14;;;;;;;17.47;10.80;;;;;;;;;;5012826;28;20178;-71
2024/01/07 06:47:40;;;;;;;14.70;10.13;;;;;;;;;;5026088;28;20179;-71
2024/01/07 06:50:05;;;;;;;18.93;10.40;;;;;;;;;;5026057;28;20700;-71
2024/01/07 06:52:31;;;;;;;16.50;10.60;;;;;;;;;;5027491;28;20189;-70
2024/01/07 06:54:56;;;;;;;19.90;11.17;;;;;;;;;;5027878;28;20252;-71
2024/01/07 06:57:21;;;;;;;18.73;9.77;;;;;;;;;;5028926;28;20195;-70
2024/01/07 06:59:46;;;;;;;18.90;11.37;;;;;;;;;;5028192;28;20711;-70
2024/01/07 07:02:12;;;;;;;16.93;11.13;;;;;;;;;;5025899;28;20213;-71
2024/01/07 07:04:37;;;;;;;14.57;9.73;;;;;;;;;;5008504;28;20276;-71
2024/01/07 07:07:02;;;;;;;13.83;9.53;;;;;;;;;;5028377;28;20194;-70
2024/01/07 07:09:27;;;;;;;14.30;9.37;;;;;;;;;;5011838;28;20301;-71
2024/01/07 07:11:52;;;;;;;14.73;8.93;;;;;;;;;;5027495;28;20174;-70
2024/01/07 07:14:18;;;;;;;16.43;9.80;;;;;;;;;;5028648;28;20182;-69
2024/01/07 07:16:43;;;;;;;14.80;9.67;;;;;;;;;;5012647;28;20720;-69
2024/01/07 07:19:08;;;;;;;18.97;10.70;;;;;;;;;;5026775;28;20198;-70
2024/01/07 07:21:33;;;;;;;15.80;9.60;;;;;;;;;;5027992;28;20570;-70
2024/01/07 07:23:58;;;;;;;15.10;9.50;;;;;;;;;;5007615;28;20182;-70
2024/01/07 07:26:24;;;;;;;13.50;8.73;;;;;;;;;;5027163;28;20251;-69
2024/01/07 07:28:49;;;;;;;18.57;9.87;;;;;;;;;;5011194;28;20186;-69
2024/01/07 07:31:14;;;;;;;15.90;9.40;;;;;;;;;;5029581;28;20225;-70
2024/01/07 07:33:40;;;;;;;16.73;10.77;;;;;;;;;;5027677;28;20190;-70
2024/01/07 07:36:05;;;;;;;15.40;9.87;;;;;;;;;;5031655;28;20668;-71
2024/01/07 07:38:30;;;;;;;13.83;9.07;;;;;;;;;;5027237;28;20669;-70
2024/01/07 07:40:55;;;;;;;18.90;9.43;;;;;;;;;;5027973;28;20689;-70
2024/01/07 07:43:20;;;;;;;14.90;10.47;;;;;;;;;;5026583;28;20193;-71
2024/01/07 07:45:46;;;;;;;17.57;9.50;;;;;;;;;;5025376;28;20183;-70
2024/01/07 07:48:11;;;;;;;15.20;9.43;;;;;;;;;;5010708;28;20339;-70
2024/01/07 07:50:36;;;;;;;14.27;9.47;;;;;;;;;;5023555;28;20211;-70
2024/01/07 07:53:02;;;;;;;14.63;9.27;;;;;;;;;;5028159;28;20189;-71
2024/01/07 07:55:28;;;;;;;14.17;9.60;;;;;;;;;;5029159;28;20178;-70
2024/01/07 07:57:53;;;;;;;15.93;10.30;;;;;;;;;;5021237;28;20220;-69
2024/01/07 08:00:19;;;;;;;14.53;9.93;;;;;;;;;;5029485;28;20206;-70
2024/01/07 08:02:44;;;;;;;15.03;9.90;;;;;;;;;;5029875;28;20244;-70
2024/01/07 08:05:09;;;;;;;16.80;11.07;;;;;;;;;;5029253;28;20205;-69
2024/01/07 08:07:34;;;;;;;14.07;10.20;;;;;;;;;;5027877;28;20191;-70
2024/01/07 08:10:00;;;;;;;17.73;10.50;;;;;;;;;;5025515;23;20237;-68
2024/01/07 08:12:25;;;;;;;12.90;9.67;;;;;;;;;;5028187;28;20202;-67
2024/01/07 08:14:50;;;;;;;17.40;10.10;;;;;;;;;;5025026;28;20178;-67
2024/01/07 08:17:15;;;;;;;14.20;8.90;;;;;;;;;;5028976;28;20296;-68
2024/01/07 08:19:40;;;;;;;13.60;8.60;;;;;;;;;;5030037;28;20731;-68
2024/01/07 08:22:06;;;;;;;15.90;9.47;;;;;;;;;;5030248;28;20664;-68
2024/01/07 08:24:31;;;;;;;13.67;8.57;;;;;;;;;;5010828;28;20206;-68
2024/01/07 08:26:56;;;;;;;13.20;8.23;;;;;;;;;;5029885;28;20256;-68
2024/01/07 08:29:21;;;;;;;15.47;9.17;;;;;;;;;;5030079;28;20674;-68
2024/01/07 08:31:47;;;;;;;16.97;9.30;;;;;;;;;;5027224;28;20598;-68
2024/01/07 08:34:12;;;;;;;15.70;9.30;;;;;;;;;;5033292;28;20206;-69
2024/01/07 08:36:38;;;;;;;15.90;9.23;;;;;;;;;;5030816;28;20289;-68
2024/01/07 08:39:03;;;;;;;12.20;8.77;;;;;;;;;;5029076;28;20298;-68
2024/01/07 08:41:28;;;;;;;14.53;9.47;;;;;;;;;;5030278;28;20777;-67
2024/01/07 08:43:54;;;;;;;14.00;9.33;;;;;;;;;;5029149;28;20181;-68
2024/01/07 08:46:22;;;;;;;15.57;10.00;;;;;;;;;;5030163;28;20217;-67
2024/01/07 08:48:47;;;;;;;15.40;8.50;;;;;;;;;;5027317;28;20186;-68
2024/01/07 08:51:13;;;;;;;14.33;9.73;;;;;;;;;;5025168;28;20204;-67
2024/01/07 08:53:39;;;;;;;15.53;9.53;;;;;;;;;;5030353;28;20173;-68
2024/01/07 08:56:04;;;;;;;14.87;9.17;;;;;;;;;;5030732;28;20167;-68
2024/01/07 08:58:29;;;;;;;15.23;9.93;;;;;;;;;;5029878;28;20212;-67
2024/01/07 09:00:55;;;;;;;15.83;10.73;;;;;;;;;;5027603;28;20224;-68
2024/01/07 09:03:20;;;;;;;17.13;9.90;;;;;;;;;;5029107;28;20259;-67
2024/01/07 09:05:45;;;;;;;16.23;10.10;;;;;;;;;;5024077;28;20186;-68
2024/01/07 09:08:14;;;;;;;14.20;10.23;;;;;;;;;;5022937;28;20174;-68
2024/01/07 09:10:39;;;;;;;15.03;8.70;;;;;;;;;;5005763;28;20301;-68
2024/01/07 09:13:04;;;;;;;16.17;9.93;;;;;;;;;;5027283;28;20273;-66
2024/01/07 09:15:29;;;;;;;14.87;9.30;;;;;;;;;;5026267;28;20265;-67
2024/01/07 09:17:54;;;;;;;15.83;10.70;;;;;;;;;;5025568;28;20219;-67
2024/01/07 09:20:20;;;;;;;14.83;9.30;;;;;;;;;;5025633;28;20209;-68
2024/01/07 09:22:45;;;;;;;15.97;8.83;;;;;;;;;;5009669;28;20188;-68
2024/01/07 09:25:11;;;;;;;14.30;8.90;;;;;;;;;;5029257;28;20197;-68
2024/01/07 09:27:36;;;;;;;13.90;9.83;;;;;;;;;;5026949;28;20189;-68
2024/01/07 09:30:01;;;;;;;14.23;10.27;;;;;;;;;;5018764;28;20582;-67
2024/01/07 09:32:27;;;;;;;16.60;9.53;;;;;;;;;;5027229;28;20182;-68
2024/01/07 09:34:52;;;;;;;14.03;8.93;;;;;;;;;;5030061;28;20190;-69
2024/01/07 09:37:17;;;;;;;13.57;8.63;;;;;;;;;;5029254;28;20220;-68
2024/01/07 09:39:44;;;;;;;13.60;8.43;;;;;;;;;;5029328;28;20565;-68
2024/01/07 09:42:16;;;;;;;12.30;9.17;;;;;;;;;;5027084;28;20220;-68
2024/01/07 09:44:42;;;;;;;12.00;8.60;;;;;;;;;;5029665;28;20179;-67
2024/01/07 09:47:10;;;;;;;12.63;8.80;;;;;;;;;;5024693;28;20213;-68
2024/01/07 09:49:35;;;;;;;13.10;8.10;;;;;;;;;;5029085;28;20198;-68
2024/01/07 09:52:03;;;;;;;16.30;8.73;;;;;;;;;;5028151;28;20182;-68
2024/01/07 09:54:29;;;;;;;11.43;7.87;;;;;;;;;;5028920;28;20664;-68
2024/01/07 09:57:01;;;;;;;12.90;8.63;;;;;;;;;;5025111;28;20202;-68
2024/01/07 09:59:30;;;;;;;15.67;8.53;;;;;;;;;;5028501;28;20596;-68
2024/01/07 10:01:55;;;;;;;13.00;7.37;;;;;;;;;;5027971;28;20265;-68
2024/01/07 10:04:21;;;;;;;10.80;8.03;;;;;;;;;;5026339;28;20324;-68
2024/01/07 10:06:48;;;;;;;12.23;7.97;;;;;;;;;;5023187;28;20182;-69
2024/01/07 10:09:13;;;;;;;13.50;8.17;;;;;;;;;;5024402;28;20186;-68
2024/01/07 10:11:39;;;;;;;12.83;9.03;;;;;;;;;;5026995;28;20214;-68
2024/01/07 10:14:04;;;;;;;16.00;8.17;;;;;;;;;;5030159;28;20182;-67
2024/01/07 10:16:29;;;;;;;13.20;8.53;;;;;;;;;;5030725;28;20224;-67
2024/01/07 10:18:54;;;;;;;11.17;8.30;;;;;;;;;;5015515;28;20185;-68
2024/01/07 10:21:20;;;;;;;12.83;8.00;;;;;;;;;;5030765;28;20573;-67
2024/01/07 10:23:45;;;;;;;11.57;8.23;;;;;;;;;;5027688;28;20186;-68
2024/01/07 10:26:10;;;;;;;12.40;8.13;;;;;;;;;;5033547;28;20166;-68
2024/01/07 10:28:37;;;;;;;13.50;7.27;;;;;;;;;;5020239;28;20178;-69
2024/01/07 10:31:03;;;;;;;10.93;7.40;;;;;;;;;;5033127;28;20546;-67
2024/01/07 10:33:32;;;;;;;11.63;7.57;;;;;;;;;;5033140;28;20186;-67
2024/01/07 10:36:01;;;;;;;11.63;7.60;;;;;;;;;;5015733;28;20265;-68
2024/01/07 10:38:26;;;;;;;10.37;6.50;;;;;;;;;;5031696;28;20333;-68
2024/01/07 10:40:52;;;;;;;10.90;7.20;;;;;;;;;;5014965;28;20520;-68
2024/01/07 10:43:18;;;;;;;12.10;6.83;;;;;;;;;;5031452;28;20646;-68
2024/01/07 10:45:47;;;;;;;10.10;6.57;;;;;;;;;;5015334;28;20599;-67
2024/01/07 10:48:13;;;;;;;8.90;6.17;;;;;;;;;;5032274;28;20366;-69
2024/01/07 10:50:39;;;;;;;9.57;6.33;;;;;;;;;;5009903;28;20682;-68
2024/01/07 10:53:07;;;;;;;9.83;6.43;;;;;;;;;;5022501;28;20171;-68
2024/01/07 10:55:36;;;;;;;10.60;6.60;;;;;;;;;;5028463;28;20205;-68
2024/01/07 10:58:02;;;;;;;10.57;6.17;;;;;;;;;;5028894;28;20255;-68
2024/01/07 11:00:27;;;;;;;11.67;6.77;;;;;;;;;;5030886;28;20205;-68
2024/01/07 11:03:09;;;;;;;10.07;5.73;;;;;;;;;;5032888;28;20547;-68
2024/01/07 11:05:40;;;;;;;8.20;5.50;;;;;;;;;;5029952;28;20588;-68
2024/01/07 11:08:16;;;;;;;10.13;6.00;;;;;;;;;;5029081;28;20658;-69
2024/01/07 11:10:46;;;;;;;7.47;5.10;;;;;;;;;;5030985;28;20275;-68
2024/01/07 11:13:31;;;;;;;6.60;4.73;;;;;;;;;;5027824;28;20646;-68
2024/01/07 11:15:56;;;;;;;7.60;4.43;;;;;;;;;;5030839;28;20254;-68
2024/01/07 11:18:22;;;;;;;6.67;4.60;;;;;;;;;;5032685;28;20281;-68
2024/01/07 11:20:47;;;;;;;8.13;4.40;;;;;;;;;;5030928;28;20328;-68
2024/01/07 11:23:37;;;;;;;7.00;4.27;;;;;;;;;;5031362;28;20539;-68
2024/01/07 11:26:02;;;;;;;7.20;4.27;;;;;;;;;;5031845;28;20175;-68
2024/01/07 11:28:42;;;;;;;5.50;3.97;;;;;;;;;;5032295;28;20182;-68
2024/01/07 11:31:08;;;;;;;5.77;4.40;;;;;;;;;;5031459;28;20220;-68
2024/01/07 11:33:34;;;;;;;6.87;3.80;;;;;;;;;;5031211;28;20182;-68
2024/01/07 11:36:01;;;;;;;5.80;4.00;;;;;;;;;;5029592;28;20255;-68
2024/01/07 11:38:26;;;;;;;5.10;3.60;;;;;;;;;;5027044;28;20285;-68
2024/01/07 11:40:52;;;;;;;10.20;3.80;;;;;;;;;;5028276;28;20678;-67
2024/01/07 11:43:17;;;;;;;4.40;3.70;;;;;;;;;;5029194;28;20168;-68
2024/01/07 11:45:42;;;;;;;5.63;3.87;;;;;;;;;;5012819;28;20190;-68
2024/01/07 11:48:07;;;;;;;5.00;3.07;;;;;;;;;;5028001;28;20665;-68
2024/01/07 11:50:34;;;;;;;4.30;3.57;;;;;;;;;;5013042;28;20194;-68
2024/01/07 11:53:00;;;;;;;4.93;4.00;;;;;;;;;;5028570;28;20209;-68
2024/01/07 11:55:25;;;;;;;5.47;3.70;;;;;;;;;;5029267;28;20170;-68
2024/01/07 11:57:51;;;;;;;5.60;4.13;;;;;;;;;;5011460;28;20681;-68
2024/01/07 12:00:17;;;;;;;3.93;3.00;;;;;;;;;;5031560;28;20305;-68
2024/01/07 12:02:42;;;;;;;6.00;3.30;;;;;;;;;;5029285;28;20254;-67
2024/01/07 12:05:08;;;;;;;4.93;3.50;;;;;;;;;;5027150;28;20174;-67
2024/01/07 12:07:36;;;;;;;4.43;3.20;;;;;;;;;;5030720;28;20178;-68
2024/01/07 12:10:02;;;;;;;2.77;2.27;;;;;;;;;;5029178;28;20234;-68
2024/01/07 12:12:27;;;;;;;5.67;3.20;;;;;;;;;;5030711;28;20248;-68
2024/01/07 12:14:52;;;;;;;3.93;2.80;;;;;;;;;;5011381;28;20174;-68
2024/01/07 12:17:17;;;;;;;4.50;3.23;;;;;;;;;;5027419;28;20281;-68
2024/01/07 12:19:43;;;;;;;4.07;2.77;;;;;;;;;;5030278;28;20248;-68
2024/01/07 12:22:08;;;;;;;4.10;2.77;;;;;;;;;;5012207;28;20200;-68
2024/01/07 12:24:34;;;;;;;5.50;3.10;;;;;;;;;;5030649;28;20664;-68
2024/01/07 12:27:06;;;;;;;5.53;2.27;;;;;;;;;;5028565;28;20225;-67
2024/01/07 12:29:31;;;;;;;3.70;2.50;;;;;;;;;;5028294;28;20226;-69
2024/01/07 12:31:56;;;;;;;2.43;1.97;;;;;;;;;;5030693;28;20170;-68
2024/01/07 12:34:23;;;;;;;4.17;2.20;;;;;;;;;;5030983;28;20189;-68
2024/01/07 12:36:49;;;;;;;4.53;1.90;;;;;;;;;;5030032;28;20241;-68
2024/01/07 12:39:14;;;;;;;3.33;2.00;;;;;;;;;;5011636;28;21089;-68
2024/01/07 12:41:39;;;;;;;3.40;2.37;;;;;;;;;;5028397;28;20284;-68
2024/01/07 12:44:04;;;;;;;2.67;2.10;;;;;;;;;;5029101;28;20235;-69
2024/01/07 12:46:31;;;;;;;3.33;2.27;;;;;;;;;;5030780;28;20598;-68
2024/01/07 12:48:56;;;;;;;2.57;2.07;;;;;;;;;;5031013;28;20182;-69
2024/01/07 12:51:21;;;;;;;3.43;2.13;;;;;;;;;;5031200;28;20213;-69
2024/01/07 12:53:47;;;;;;;3.47;2.03;;;;;;;;;;5029565;28;20171;-68
2024/01/07 12:56:13;;;;;;;2.60;1.70;;;;;;;;;;5027744;28;20202;-69
2024/01/07 12:58:38;;;;;;;2.07;1.63;;;;;;;;;;5029403;28;20206;-69
2024/01/07 13:01:03;;;;;;;2.90;2.20;;;;;;;;;;5029912;28;20432;-69
2024/01/07 13:03:28;;;;;;;2.53;1.67;;;;;;;;;;5030616;28;20175;-69
2024/01/07 13:05:54;;;;;;;1.77;1.47;;;;;;;;;;5023355;28;20175;-67
2024/01/07 13:08:21;;;;;;;2.97;2.00;;;;;;;;;;5029343;28;20204;-68
2024/01/07 13:10:47;;;;;;;3.13;2.10;;;;;;;;;;5029491;28;20218;-68
2024/01/07 13:13:12;;;;;;;2.00;1.47;;;;;;;;;;5030353;28;20615;-67
2024/01/07 13:15:38;;;;;;;3.60;2.00;;;;;;;;;;5029456;28;20170;-68
2024/01/07 13:18:03;;;;;;;2.87;1.90;;;;;;;;;;5028931;28;20591;-68
2024/01/07 13:20:28;;;;;;;3.03;1.50;;;;;;;;;;5028143;28;20281;-68
2024/01/07 13:22:53;;;;;;;2.43;1.50;;;;;;;;;;5027986;28;20592;-68
2024/01/07 13:25:18;;;;;;;2.37;1.70;;;;;;;;;;5028986;28;20211;-68
2024/01/07 13:27:44;;;;;;;2.67;1.73;;;;;;;;;;5030162;28;20181;-69
2024/01/07 13:30:09;;;;;;;3.47;1.50;;;;;;;;;;5023379;28;20194;-67
2024/01/07 13:32:36;;;;;;;2.07;1.40;;;;;;;;;;5026788;28;20719;-68
2024/01/07 13:35:01;;;;;;;4.80;1.53;;;;;;;;;;5029609;28;20188;-67
2024/01/07 13:37:27;;;;;;;3.33;1.63;;;;;;;;;;5030306;28;20202;-69
2024/01/07 13:39:52;;;;;;;1.50;1.40;;;;;;;;;;5028982;28;20293;-68
2024/01/07 13:42:17;;;;;;;1.90;1.30;;;;;;;;;;5010038;28;20182;-69
2024/01/07 13:44:46;;;;;;;1.93;1.37;;;;;;;;;;5030012;28;20216;-68
2024/01/07 13:47:12;;;;;;;2.83;1.40;;;;;;;;;;5010213;28;20182;-68
2024/01/07 13:49:37;;;;;;;1.70;1.13;;;;;;;;;;5032242;28;20693;-68
2024/01/07 13:52:03;;;;;;;1.73;1.40;;;;;;;;;;5033611;28;20178;-68
2024/01/07 13:54:28;;;;;;;2.47;1.50;;;;;;;;;;5031546;28;20182;-69
2024/01/07 13:56:55;;;;;;;1.37;1.20;;;;;;;;;;5031888;28;20217;-67
2024/01/07 13:59:22;;;;;;;2.80;1.43;;;;;;;;;;5031920;28;20645;-67
2024/01/07 14:01:48;;;;;;;1.73;1.20;;;;;;;;;;5011883;28;20222;-68
2024/01/07 14:04:13;;;;;;;4.50;1.20;;;;;;;;;;5032917;28;20715;-67
2024/01/07 14:06:38;;;;;;;3.07;1.47;;;;;;;;;;5015463;28;20178;-69
2024/01/07 14:09:03;;;;;;;1.87;1.20;;;;;;;;;;5030705;28;20185;-68
2024/01/07 14:11:29;;;;;;;3.47;1.30;;;;;;;;;;5072333;22;20254;-71
2024/01/07 14:13:54;;;;;;;1.03;0.83;;;;;;;;;;5015083;28;20187;-71
2024/01/07 14:16:19;;;;;;;1.77;1.50;;;;;;;;;;5021122;28;20179;-72
2024/01/07 14:18:44;;;;;;;1.83;1.30;;;;;;;;;;4997187;28;20245;-72
2024/01/07 14:21:10;;;;;;;3.90;1.20;;;;;;;;;;5006471;28;20254;-72